sensor_id;sensor_type;location;lat;lon;timestamp;pressure;altitude;pressure_sealevel;temperature;humidity
60437;BME280;46289;51.992;4.498;2023-07-30T00:01:30;100946.84;;;16.74;91.77
60437;BME280;46289;51.992;4.498;2023-07-30T00:03:35;100944.41;;;16.71;92.20
60437;BME280;46289;51.992;4.498;2023-07-30T00:05:41;100947.59;;;16.76;91.74
60437;BME280;46289;51.992;4.498;2023-07-30T00:07:47;100948.41;;;16.78;91.49
60437;BME280;46289;51.992;4.498;2023-07-30T00:09:49;100953.75;;;16.76;92.15
60437;BME280;46289;51.992;4.498;2023-07-30T00:11:58;100948.66;;;16.73;92.35
60437;BME280;46289;51.992;4.498;2023-07-30T00:14:04;100946.84;;;16.74;91.99
60437;BME280;46289;51.992;4.498;2023-07-30T00:16:09;100944.41;;;16.71;92.18
60437;BME280;46289;51.992;4.498;2023-07-30T00:18:14;100946.97;;;16.72;92.14
60437;BME280;46289;51.992;4.498;2023-07-30T00:20:20;100942.59;;;16.71;92.16
60437;BME280;46289;51.992;4.498;2023-07-30T00:22:28;100948.88;;;16.70;92.19
60437;BME280;46289;51.992;4.498;2023-07-30T00:24:33;100942.72;;;16.70;92.61
60437;BME280;46289;51.992;4.498;2023-07-30T00:26:42;100949.06;;;16.67;92.84
60437;BME280;46289;51.992;4.498;2023-07-30T00:28:47;100950.75;;;16.68;93.01
60437;BME280;46289;51.992;4.498;2023-07-30T00:30:52;100956.06;;;16.68;93.01
60437;BME280;46289;51.992;4.498;2023-07-30T00:32:58;100945.16;;;16.73;93.06
60437;BME280;46289;51.992;4.498;2023-07-30T00:35:04;100953.72;;;16.78;93.22
60437;BME280;46289;51.992;4.498;2023-07-30T00:37:09;100956.72;;;16.86;92.89
60437;BME280;46289;51.992;4.498;2023-07-30T00:39:13;100951.69;;;16.81;93.37
60437;BME280;46289;51.992;4.498;2023-07-30T00:41:18;100958.13;;;16.92;93.13
60437;BME280;46289;51.992;4.498;2023-07-30T00:43:23;100953.78;;;16.91;93.02
60437;BME280;46289;51.992;4.498;2023-07-30T00:45:31;100948.34;;;16.92;93.36
60437;BME280;46289;51.992;4.498;2023-07-30T00:47:37;100967.69;;;16.94;93.24
60437;BME280;46289;51.992;4.498;2023-07-30T00:49:46;100965.78;;;16.96;93.56
60437;BME280;46289;51.992;4.498;2023-07-30T00:51:51;100960.34;;;16.98;93.78
60437;BME280;46289;51.992;4.498;2023-07-30T00:53:58;100967.28;;;17.00;93.99
60437;BME280;46289;51.992;4.498;2023-07-30T00:56:01;100971.66;;;17.01;94.06
60437;BME280;46289;51.992;4.498;2023-07-30T00:58:08;100965.38;;;17.02;94.05
60437;BME280;46289;51.992;4.498;2023-07-30T01:00:15;100970.88;;;16.99;94.30
60437;BME280;46289;51.992;4.498;2023-07-30T01:02:23;100968.22;;;16.99;94.46
60437;BME280;46289;51.992;4.498;2023-07-30T01:04:29;100963.69;;;17.01;94.20
60437;BME280;46289;51.992;4.498;2023-07-30T01:06:34;100969.84;;;17.02;94.42
60437;BME280;46289;51.992;4.498;2023-07-30T01:08:40;100981.31;;;17.02;94.42
60437;BME280;46289;51.992;4.498;2023-07-30T01:10:46;100972.38;;;17.03;94.26
60437;BME280;46289;51.992;4.498;2023-07-30T01:12:48;100978.56;;;17.04;94.54
60437;BME280;46289;51.992;4.498;2023-07-30T01:15:00;100977.69;;;17.03;94.69
60437;BME280;46289;51.992;4.498;2023-07-30T01:17:06;100979.41;;;17.04;94.57
60437;BME280;46289;51.992;4.498;2023-07-30T01:19:14;100972.19;;;17.06;94.79
60437;BME280;46289;51.992;4.498;2023-07-30T01:21:22;100978.66;;;17.02;94.98
60437;BME280;46289;51.992;4.498;2023-07-30T01:23:27;100981.50;;;16.99;94.72
60437;BME280;46289;51.992;4.498;2023-07-30T01:25:30;100974.38;;;17.00;94.79
60437;BME280;46289;51.992;4.498;2023-07-30T01:27:44;100975.22;;;17.00;95.08
60437;BME280;46289;51.992;4.498;2023-07-30T01:29:56;100973.63;;;16.98;95.66
60437;BME280;46289;51.992;4.498;2023-07-30T01:32:05;100978.72;;;17.01;95.52
60437;BME280;46289;51.992;4.498;2023-07-30T01:34:12;100974.50;;;16.98;95.30
60437;BME280;46289;51.992;4.498;2023-07-30T01:36:22;100973.44;;;17.01;95.55
60437;BME280;46289;51.992;4.498;2023-07-30T01:38:27;100977.03;;;17.00;95.68
60437;BME280;46289;51.992;4.498;2023-07-30T01:40:32;100979.63;;;17.01;95.64
60437;BME280;46289;51.992;4.498;2023-07-30T01:42:38;100973.63;;;16.98;95.28
60437;BME280;46289;51.992;4.498;2023-07-30T01:44:43;100980.75;;;16.97;95.50
60437;BME280;46289;51.992;4.498;2023-07-30T01:46:51;100982.75;;;16.94;95.87
60437;BME280;46289;51.992;4.498;2023-07-30T01:48:56;100981.25;;;16.89;96.13
60437;BME280;46289;51.992;4.498;2023-07-30T01:51:01;100982.28;;;16.87;96.06
60437;BME280;46289;51.992;4.498;2023-07-30T01:53:09;100981.44;;;16.86;96.42
60437;BME280;46289;51.992;4.498;2023-07-30T01:55:17;100980.41;;;16.89;96.14
60437;BME280;46289;51.992;4.498;2023-07-30T01:57:22;100985.50;;;16.92;96.23
60437;BME280;46289;51.992;4.498;2023-07-30T01:59:28;100982.66;;;16.95;96.30
60437;BME280;46289;51.992;4.498;2023-07-30T02:01:33;100984.56;;;16.93;96.38
60437;BME280;46289;51.992;4.498;2023-07-30T02:03:39;100996.13;;;16.92;96.52
60437;BME280;46289;51.992;4.498;2023-07-30T02:05:46;100988.72;;;16.97;96.59
60437;BME280;46289;51.992;4.498;2023-07-30T02:07:52;100993.81;;;17.00;96.15
60437;BME280;46289;51.992;4.498;2023-07-30T02:09:59;100984.91;;;17.01;96.60
60437;BME280;46289;51.992;4.498;2023-07-30T02:12:06;100982.34;;;17.00;96.54
60437;BME280;46289;51.992;4.498;2023-07-30T02:14:14;100985.84;;;17.00;96.47
60437;BME280;46289;51.992;4.498;2023-07-30T02:16:20;100985.75;;;17.02;96.65
60437;BME280;46289;51.992;4.498;2023-07-30T02:18:23;100986.63;;;17.02;96.55
60437;BME280;46289;51.992;4.498;2023-07-30T02:20:28;100979.41;;;17.04;96.83
60437;BME280;46289;51.992;4.498;2023-07-30T02:22:33;100980.25;;;17.05;96.72
60437;BME280;46289;51.992;4.498;2023-07-30T02:24:42;100982.91;;;17.05;96.68
60437;BME280;46289;51.992;4.498;2023-07-30T02:26:50;100981.22;;;17.04;96.65
60437;BME280;46289;51.992;4.498;2023-07-30T02:28:56;100973.97;;;17.06;96.58
60437;BME280;46289;51.992;4.498;2023-07-30T02:31:02;100978.66;;;17.02;96.74
60437;BME280;46289;51.992;4.498;2023-07-30T02:33:10;100966.34;;;17.01;97.01
60437;BME280;46289;51.992;4.498;2023-07-30T02:35:15;100982.06;;;17.04;96.91
60437;BME280;46289;51.992;4.498;2023-07-30T02:37:20;100977.69;;;17.03;96.86
60437;BME280;46289;51.992;4.498;2023-07-30T02:39:25;100979.19;;;17.07;96.61
60437;BME280;46289;51.992;4.498;2023-07-30T02:41:30;100968.50;;;17.09;96.73
60437;BME280;46289;51.992;4.498;2023-07-30T02:43:46;100977.31;;;17.09;96.75
60437;BME280;46289;51.992;4.498;2023-07-30T02:45:51;100971.16;;;17.09;96.62
60437;BME280;46289;51.992;4.498;2023-07-30T02:47:53;100965.72;;;17.10;96.30
60437;BME280;46289;51.992;4.498;2023-07-30T02:49:59;100970.09;;;17.11;96.29
60437;BME280;46289;51.992;4.498;2023-07-30T02:52:04;100971.22;;;17.07;96.64
60437;BME280;46289;51.992;4.498;2023-07-30T02:54:10;100974.53;;;17.11;96.40
60437;BME280;46289;51.992;4.498;2023-07-30T02:56:13;100965.84;;;17.09;96.60
60437;BME280;46289;51.992;4.498;2023-07-30T02:58:19;100958.16;;;17.04;96.49
60437;BME280;46289;51.992;4.498;2023-07-30T03:00:27;100968.13;;;17.01;96.69
60437;BME280;46289;51.992;4.498;2023-07-30T03:02:32;100964.22;;;17.06;96.71
60437;BME280;46289;51.992;4.498;2023-07-30T03:04:40;100961.75;;;17.03;96.78
60437;BME280;46289;51.992;4.498;2023-07-30T03:06:45;100958.47;;;17.00;96.64
60437;BME280;46289;51.992;4.498;2023-07-30T03:08:50;100960.28;;;16.99;97.14
60437;BME280;46289;51.992;4.498;2023-07-30T03:10:58;100961.03;;;17.01;97.00
60437;BME280;46289;51.992;4.498;2023-07-30T03:13:04;100965.47;;;17.01;96.92
60437;BME280;46289;51.992;4.498;2023-07-30T03:15:11;100969.63;;;17.05;97.05
60437;BME280;46289;51.992;4.498;2023-07-30T03:17:19;100972.06;;;17.08;96.69
60437;BME280;46289;51.992;4.498;2023-07-30T03:19:24;100974.09;;;17.04;96.68
60437;BME280;46289;51.992;4.498;2023-07-30T03:21:30;100972.00;;;17.09;96.76
60437;BME280;46289;51.992;4.498;2023-07-30T03:23:35;100974.09;;;17.04;96.73
60437;BME280;46289;51.992;4.498;2023-07-30T03:25:40;100970.69;;;17.02;96.86
60437;BME280;46289;51.992;4.498;2023-07-30T03:27:46;100973.44;;;17.01;96.71
60437;BME280;46289;51.992;4.498;2023-07-30T03:29:49;100978.09;;;16.97;96.72
60437;BME280;46289;51.992;4.498;2023-07-30T03:31:54;100976.28;;;16.98;96.71
60437;BME280;46289;51.992;4.498;2023-07-30T03:34:02;100976.19;;;16.99;96.32
60437;BME280;46289;51.992;4.498;2023-07-30T03:36:07;100972.78;;;16.97;96.22
60437;BME280;46289;51.992;4.498;2023-07-30T03:38:13;100975.72;;;16.93;96.15
60437;BME280;46289;51.992;4.498;2023-07-30T03:40:19;100972.91;;;16.96;95.65
60437;BME280;46289;51.992;4.498;2023-07-30T03:42:24;100969.56;;;16.92;95.23
60437;BME280;46289;51.992;4.498;2023-07-30T03:44:29;100977.75;;;16.89;95.04
60437;BME280;46289;51.992;4.498;2023-07-30T03:46:35;100974.44;;;16.85;94.90
60437;BME280;46289;51.992;4.498;2023-07-30T03:48:40;100968.66;;;16.79;94.56
60437;BME280;46289;51.992;4.498;2023-07-30T03:50:48;100969.31;;;16.82;94.50
60437;BME280;46289;51.992;4.498;2023-07-30T03:52:53;100983.66;;;16.80;93.69
60437;BME280;46289;51.992;4.498;2023-07-30T03:55:00;100979.66;;;16.73;93.47
60437;BME280;46289;51.992;4.498;2023-07-30T03:57:05;100979.84;;;16.70;93.48
60437;BME280;46289;51.992;4.498;2023-07-30T03:59:10;100981.84;;;16.66;93.41
60437;BME280;46289;51.992;4.498;2023-07-30T04:01:15;100984.50;;;16.66;92.50
60437;BME280;46289;51.992;4.498;2023-07-30T04:03:23;100978.53;;;16.62;91.56
60437;BME280;46289;51.992;4.498;2023-07-30T04:05:29;100978.63;;;16.61;89.14
60437;BME280;46289;51.992;4.498;2023-07-30T04:07:38;100984.25;;;16.56;88.19
60437;BME280;46289;51.992;4.498;2023-07-30T04:09:44;100984.59;;;16.50;88.14
60437;BME280;46289;51.992;4.498;2023-07-30T04:11:49;100988.97;;;16.51;87.89
60437;BME280;46289;51.992;4.498;2023-07-30T04:13:54;100983.97;;;16.46;88.11
60437;BME280;46289;51.992;4.498;2023-07-30T04:16:00;100985.66;;;16.48;86.18
60437;BME280;46289;51.992;4.498;2023-07-30T04:18:05;100981.50;;;16.43;86.70
60437;BME280;46289;51.992;4.498;2023-07-30T04:20:10;100985.00;;;16.44;86.71
60437;BME280;46289;51.992;4.498;2023-07-30T04:22:16;100988.63;;;16.43;87.00
60437;BME280;46289;51.992;4.498;2023-07-30T04:24:24;100983.97;;;16.46;87.20
60437;BME280;46289;51.992;4.498;2023-07-30T04:26:30;100988.22;;;16.49;87.32
60437;BME280;46289;51.992;4.498;2023-07-30T04:28:35;100985.56;;;16.49;86.85
60437;BME280;46289;51.992;4.498;2023-07-30T04:30:40;100991.16;;;16.44;85.56
60437;BME280;46289;51.992;4.498;2023-07-30T04:32:46;100988.41;;;16.46;85.87
60437;BME280;46289;51.992;4.498;2023-07-30T04:34:51;100989.47;;;16.43;85.02
60437;BME280;46289;51.992;4.498;2023-07-30T04:36:56;100990.31;;;16.44;84.86
60437;BME280;46289;51.992;4.498;2023-07-30T04:39:02;100986.69;;;16.45;84.87
60437;BME280;46289;51.992;4.498;2023-07-30T04:41:10;100986.50;;;16.48;83.51
60437;BME280;46289;51.992;4.498;2023-07-30T04:43:16;100988.22;;;16.49;83.26
60437;BME280;46289;51.992;4.498;2023-07-30T04:45:21;100990.97;;;16.48;83.76
60437;BME280;46289;51.992;4.498;2023-07-30T04:47:26;100995.41;;;16.47;82.65
60437;BME280;46289;51.992;4.498;2023-07-30T04:49:32;100994.44;;;16.48;82.23
60437;BME280;46289;51.992;4.498;2023-07-30T04:51:39;100991.63;;;16.51;82.03
60437;BME280;46289;51.992;4.498;2023-07-30T04:53:44;101005.06;;;16.48;81.93
60437;BME280;46289;51.992;4.498;2023-07-30T04:55:55;100996.94;;;16.51;81.91
60437;BME280;46289;51.992;4.498;2023-07-30T04:58:03;100996.06;;;16.51;81.78
60437;BME280;46289;51.992;4.498;2023-07-30T05:00:09;100995.69;;;16.57;81.74
60437;BME280;46289;51.992;4.498;2023-07-30T05:02:15;100994.19;;;16.53;81.81
60437;BME280;46289;51.992;4.498;2023-07-30T05:04:23;100993.97;;;16.56;82.22
60437;BME280;46289;51.992;4.498;2023-07-30T05:06:29;100993.81;;;16.59;86.62
60437;BME280;46289;51.992;4.498;2023-07-30T05:08:35;100997.31;;;16.59;89.70
60437;BME280;46289;51.992;4.498;2023-07-30T05:10:40;100996.72;;;16.68;89.90
60437;BME280;46289;51.992;4.498;2023-07-30T05:12:46;100997.28;;;16.74;91.51
60437;BME280;46289;51.992;4.498;2023-07-30T05:14:53;100999.72;;;16.77;92.07
60437;BME280;46289;51.992;4.498;2023-07-30T05:16:58;101000.31;;;16.82;92.73
60437;BME280;46289;51.992;4.498;2023-07-30T05:19:01;101003.53;;;16.87;92.84
60437;BME280;46289;51.992;4.498;2023-07-30T05:21:21;101003.16;;;16.79;93.71
60437;BME280;46289;51.992;4.498;2023-07-30T05:23:26;101005.25;;;16.88;93.26
60437;BME280;46289;51.992;4.498;2023-07-30T05:25:37;101011.97;;;16.94;93.25
60437;BME280;46289;51.992;4.498;2023-07-30T05:27:44;101008.41;;;17.07;92.56
60437;BME280;46289;51.992;4.498;2023-07-30T05:29:49;101009.94;;;16.97;93.25
60437;BME280;46289;51.992;4.498;2023-07-30T05:32:00;101009.19;;;16.95;93.44
60437;BME280;46289;51.992;4.498;2023-07-30T05:34:06;101008.06;;;16.99;93.33
60437;BME280;46289;51.992;4.498;2023-07-30T05:36:08;101002.13;;;17.08;93.43
60437;BME280;46289;51.992;4.498;2023-07-30T05:38:14;101008.66;;;17.17;92.57
60437;BME280;46289;51.992;4.498;2023-07-30T05:40:19;101009.38;;;17.06;92.88
60437;BME280;46289;51.992;4.498;2023-07-30T05:42:22;101010.31;;;17.05;92.56
60437;BME280;46289;51.992;4.498;2023-07-30T05:44:29;101002.59;;;17.15;92.23
60437;BME280;46289;51.992;4.498;2023-07-30T05:46:35;101008.75;;;17.16;92.48
60437;BME280;46289;51.992;4.498;2023-07-30T05:48:44;101004.19;;;17.18;92.45
60437;BME280;46289;51.992;4.498;2023-07-30T05:50:49;100998.53;;;17.37;91.56
60437;BME280;46289;51.992;4.498;2023-07-30T05:52:59;101005.53;;;17.38;91.24
60437;BME280;46289;51.992;4.498;2023-07-30T05:55:15;101011.28;;;17.44;90.81
60437;BME280;46289;51.992;4.498;2023-07-30T05:57:22;101006.88;;;17.58;89.42
60437;BME280;46289;51.992;4.498;2023-07-30T05:59:29;101002.31;;;17.60;88.32
60437;BME280;46289;51.992;4.498;2023-07-30T06:01:40;100997.94;;;17.59;87.28
60437;BME280;46289;51.992;4.498;2023-07-30T06:03:51;101001.66;;;17.69;86.11
60437;BME280;46289;51.992;4.498;2023-07-30T06:06:03;101001.88;;;17.66;86.42
60437;BME280;46289;51.992;4.498;2023-07-30T06:08:08;100995.69;;;17.52;85.96
60437;BME280;46289;51.992;4.498;2023-07-30T06:10:14;100997.06;;;17.58;86.05
60437;BME280;46289;51.992;4.498;2023-07-30T06:15:08;100987.22;;;17.60;85.92
60437;BME280;46289;51.992;4.498;2023-07-30T06:17:16;100994.75;;;17.66;85.05
60437;BME280;46289;51.992;4.498;2023-07-30T06:19:28;100992.22;;;17.65;84.82
60437;BME280;46289;51.992;4.498;2023-07-30T06:21:38;100985.41;;;17.61;84.85
60437;BME280;46289;51.992;4.498;2023-07-30T06:23:50;101002.41;;;17.58;85.21
60437;BME280;46289;51.992;4.498;2023-07-30T06:25:58;101006.78;;;17.59;85.05
60437;BME280;46289;51.992;4.498;2023-07-30T06:28:11;101003.78;;;17.64;85.11
60437;BME280;46289;51.992;4.498;2023-07-30T06:30:22;101002.41;;;17.71;85.10
60437;BME280;46289;51.992;4.498;2023-07-30T06:32:31;101009.94;;;17.91;84.09
60437;BME280;46289;51.992;4.498;2023-07-30T06:34:51;101008.53;;;18.24;82.72
60437;BME280;46289;51.992;4.498;2023-07-30T06:37:00;101002.28;;;18.38;82.12
60437;BME280;46289;51.992;4.498;2023-07-30T06:39:14;101008.13;;;18.30;82.41
60437;BME280;46289;51.992;4.498;2023-07-30T06:41:26;101011.41;;;18.34;82.76
60437;BME280;46289;51.992;4.498;2023-07-30T06:43:44;101010.88;;;18.29;82.69
60437;BME280;46289;51.992;4.498;2023-07-30T06:45:50;101016.28;;;18.40;81.71
60437;BME280;46289;51.992;4.498;2023-07-30T06:48:04;101013.22;;;18.33;81.30
60437;BME280;46289;51.992;4.498;2023-07-30T06:50:23;101009.28;;;18.26;81.49
60437;BME280;46289;51.992;4.498;2023-07-30T06:52:28;101006.00;;;18.23;81.26
60437;BME280;46289;51.992;4.498;2023-07-30T06:54:44;101016.94;;;18.31;81.08
60437;BME280;46289;51.992;4.498;2023-07-30T06:56:59;101020.47;;;18.31;81.79
60437;BME280;46289;51.992;4.498;2023-07-30T06:59:07;101013.44;;;18.30;82.31
60437;BME280;46289;51.992;4.498;2023-07-30T07:01:12;101012.16;;;18.10;82.69
60437;BME280;46289;51.992;4.498;2023-07-30T07:03:21;101008.97;;;18.05;83.52
60437;BME280;46289;51.992;4.498;2023-07-30T07:05:32;101022.47;;;17.89;83.92
60437;BME280;46289;51.992;4.498;2023-07-30T07:07:53;101009.25;;;17.75;85.64
60437;BME280;46289;51.992;4.498;2023-07-30T07:09:58;101013.06;;;17.71;87.23
60437;BME280;46289;51.992;4.498;2023-07-30T07:12:09;101014.88;;;17.70;86.58
60437;BME280;46289;51.992;4.498;2023-07-30T07:17:01;101014.66;;;17.73;86.98
60437;BME280;46289;51.992;4.498;2023-07-30T07:19:17;101024.38;;;17.87;85.74
60437;BME280;46289;51.992;4.498;2023-07-30T07:21:25;101028.44;;;17.80;86.19
60437;BME280;46289;51.992;4.498;2023-07-30T07:23:35;101031.22;;;17.77;86.46
60437;BME280;46289;51.992;4.498;2023-07-30T07:25:40;101028.09;;;17.85;86.94
60437;BME280;46289;51.992;4.498;2023-07-30T07:27:51;101034.38;;;17.84;86.63
60437;BME280;46289;51.992;4.498;2023-07-30T07:29:57;101042.44;;;17.82;86.45
60437;BME280;46289;51.992;4.498;2023-07-30T07:32:02;101038.84;;;17.83;84.12
60437;BME280;46289;51.992;4.498;2023-07-30T07:34:11;101047.38;;;17.88;83.69
60437;BME280;46289;51.992;4.498;2023-07-30T07:36:18;101048.22;;;18.02;83.91
60437;BME280;46289;51.992;4.498;2023-07-30T07:38:31;101052.59;;;18.03;82.50
60437;BME280;46289;51.992;4.498;2023-07-30T07:40:38;101038.84;;;18.60;81.40
60437;BME280;46289;51.992;4.498;2023-07-30T07:42:54;101047.56;;;18.62;78.24
60437;BME280;46289;51.992;4.498;2023-07-30T07:44:59;101041.59;;;18.84;76.05
60437;BME280;46289;51.992;4.498;2023-07-30T07:47:10;101052.31;;;19.19;73.30
60437;BME280;46289;51.992;4.498;2023-07-30T07:49:16;101048.03;;;19.29;73.10
60437;BME280;46289;51.992;4.498;2023-07-30T07:51:21;101052.94;;;19.36;72.77
60437;BME280;46289;51.992;4.498;2023-07-30T07:53:29;101055.06;;;19.30;71.96
60437;BME280;46289;51.992;4.498;2023-07-30T07:55:36;101066.16;;;19.24;70.73
60437;BME280;46289;51.992;4.498;2023-07-30T07:57:46;101057.84;;;19.29;71.04
60437;BME280;46289;51.992;4.498;2023-07-30T07:59:52;101066.56;;;19.55;69.02
60437;BME280;46289;51.992;4.498;2023-07-30T08:01:57;101063.44;;;19.37;69.30
60437;BME280;46289;51.992;4.498;2023-07-30T08:04:06;101059.94;;;19.37;69.17
60437;BME280;46289;51.992;4.498;2023-07-30T08:06:13;101065.69;;;19.43;68.40
60437;BME280;46289;51.992;4.498;2023-07-30T08:08:26;101070.22;;;19.54;68.60
60437;BME280;46289;51.992;4.498;2023-07-30T08:10:41;101067.47;;;19.43;67.18
60437;BME280;46289;51.992;4.498;2023-07-30T08:12:49;101062.03;;;19.20;67.48
60437;BME280;46289;51.992;4.498;2023-07-30T08:14:57;101077.31;;;19.05;68.10
60437;BME280;46289;51.992;4.498;2023-07-30T08:17:05;101071.69;;;18.97;67.74
60437;BME280;46289;51.992;4.498;2023-07-30T08:19:17;101067.16;;;18.86;68.81
60437;BME280;46289;51.992;4.498;2023-07-30T08:21:25;101066.66;;;19.05;69.04
60437;BME280;46289;51.992;4.498;2023-07-30T08:23:39;101069.00;;;19.10;69.67
60437;BME280;46289;51.992;4.498;2023-07-30T08:26:04;101070.41;;;19.03;68.91
60437;BME280;46289;51.992;4.498;2023-07-30T08:28:10;101064.47;;;18.86;69.85
60437;BME280;46289;51.992;4.498;2023-07-30T08:30:17;101060.69;;;18.78;70.18
60437;BME280;46289;51.992;4.498;2023-07-30T08:32:44;101067.69;;;18.66;71.34
60437;BME280;46289;51.992;4.498;2023-07-30T08:35:36;101078.53;;;18.63;73.32
60437;BME280;46289;51.992;4.498;2023-07-30T08:37:41;101069.59;;;18.64;74.65
60437;BME280;46289;51.992;4.498;2023-07-30T08:39:47;101067.38;;;18.58;74.25
60437;BME280;46289;51.992;4.498;2023-07-30T08:41:59;101068.44;;;18.68;74.14
60437;BME280;46289;51.992;4.498;2023-07-30T08:44:04;101064.94;;;18.55;73.85
60437;BME280;46289;51.992;4.498;2023-07-30T08:46:10;101064.25;;;18.64;73.37
60437;BME280;46289;51.992;4.498;2023-07-30T08:48:17;101078.31;;;18.66;73.19
60437;BME280;46289;51.992;4.498;2023-07-30T08:50:22;101081.00;;;18.53;73.43
60437;BME280;46289;51.992;4.498;2023-07-30T08:52:29;101089.31;;;18.49;73.26
60437;BME280;46289;51.992;4.498;2023-07-30T08:54:34;101093.97;;;18.58;72.69
60437;BME280;46289;51.992;4.498;2023-07-30T08:56:42;101082.50;;;18.83;72.24
60437;BME280;46289;51.992;4.498;2023-07-30T08:58:54;101085.00;;;19.34;70.52
60437;BME280;46289;51.992;4.498;2023-07-30T09:01:03;101078.69;;;20.30;68.14
60437;BME280;46289;51.992;4.498;2023-07-30T09:03:15;101080.72;;;20.73;66.76
60437;BME280;46289;51.992;4.498;2023-07-30T09:05:21;101082.66;;;20.93;66.15
60437;BME280;46289;51.992;4.498;2023-07-30T09:07:26;101079.88;;;21.27;62.37
60437;BME280;46289;51.992;4.498;2023-07-30T09:09:31;101073.38;;;21.84;61.37
60437;BME280;46289;51.992;4.498;2023-07-30T09:11:37;101083.34;;;22.35;60.14
60437;BME280;46289;51.992;4.498;2023-07-30T09:13:42;101078.16;;;21.48;59.52
60437;BME280;46289;51.992;4.498;2023-07-30T09:15:51;101089.91;;;21.02;60.67
60437;BME280;46289;51.992;4.498;2023-07-30T09:17:56;101090.16;;;20.66;61.77
60437;BME280;46289;51.992;4.498;2023-07-30T09:20:03;101091.19;;;20.18;62.90
60437;BME280;46289;51.992;4.498;2023-07-30T09:22:10;101086.25;;;20.36;61.70
60437;BME280;46289;51.992;4.498;2023-07-30T09:24:21;101101.00;;;20.17;61.12
60437;BME280;46289;51.992;4.498;2023-07-30T09:26:29;101095.63;;;20.64;59.87
60437;BME280;46289;51.992;4.498;2023-07-30T09:28:35;101099.56;;;21.48;57.50
60437;BME280;46289;51.992;4.498;2023-07-30T09:30:40;101096.72;;;21.82;56.00
60437;BME280;46289;51.992;4.498;2023-07-30T09:32:51;101089.81;;;22.33;56.51
60437;BME280;46289;51.992;4.498;2023-07-30T09:35:04;101102.41;;;21.68;57.26
60437;BME280;46289;51.992;4.498;2023-07-30T09:37:10;101099.16;;;21.53;58.61
60437;BME280;46289;51.992;4.498;2023-07-30T09:39:17;101111.25;;;21.25;59.68
60437;BME280;46289;51.992;4.498;2023-07-30T09:41:23;101112.31;;;21.45;59.46
60437;BME280;46289;51.992;4.498;2023-07-30T09:43:29;101119.94;;;22.35;59.20
60437;BME280;46289;51.992;4.498;2023-07-30T09:45:36;101122.34;;;22.59;57.88
60437;BME280;46289;51.992;4.498;2023-07-30T09:47:49;101135.41;;;21.35;59.49
60437;BME280;46289;51.992;4.498;2023-07-30T09:49:54;101125.69;;;21.45;60.21
60437;BME280;46289;51.992;4.498;2023-07-30T09:52:00;101127.91;;;22.04;58.01
60437;BME280;46289;51.992;4.498;2023-07-30T09:54:03;101119.88;;;22.04;55.70
60437;BME280;46289;51.992;4.498;2023-07-30T09:56:08;101128.53;;;22.29;56.92
60437;BME280;46289;51.992;4.498;2023-07-30T09:58:14;101129.63;;;21.73;57.59
60437;BME280;46289;51.992;4.498;2023-07-30T10:00:19;101130.34;;;21.09;59.19
60437;BME280;46289;51.992;4.498;2023-07-30T10:02:27;101141.88;;;21.43;57.77
60437;BME280;46289;51.992;4.498;2023-07-30T10:04:42;101138.00;;;22.01;57.28
60437;BME280;46289;51.992;4.498;2023-07-30T10:06:51;101128.91;;;22.24;54.77
60437;BME280;46289;51.992;4.498;2023-07-30T10:09:00;101117.03;;;21.53;57.08
60437;BME280;46289;51.992;4.498;2023-07-30T10:11:08;101140.88;;;21.22;58.82
60437;BME280;46289;51.992;4.498;2023-07-30T10:13:14;101127.09;;;22.13;56.40
60437;BME280;46289;51.992;4.498;2023-07-30T10:15:21;101129.97;;;22.94;54.94
60437;BME280;46289;51.992;4.498;2023-07-30T10:17:26;101138.78;;;23.47;53.49
60437;BME280;46289;51.992;4.498;2023-07-30T10:19:33;101135.97;;;22.77;54.08
60437;BME280;46289;51.992;4.498;2023-07-30T10:21:45;101134.22;;;22.03;56.30
60437;BME280;46289;51.992;4.498;2023-07-30T10:24:01;101158.19;;;22.05;56.62
60437;BME280;46289;51.992;4.498;2023-07-30T10:26:09;101156.41;;;21.51;57.83
60437;BME280;46289;51.992;4.498;2023-07-30T10:28:32;101150.47;;;21.36;58.75
60437;BME280;46289;51.992;4.498;2023-07-30T10:30:41;101156.44;;;21.17;58.85
60437;BME280;46289;51.992;4.498;2023-07-30T10:33:03;101156.66;;;21.36;58.53
60437;BME280;46289;51.992;4.498;2023-07-30T10:35:35;101154.84;;;20.69;60.93
60437;BME280;46289;51.992;4.498;2023-07-30T10:37:47;101161.94;;;21.04;59.78
60437;BME280;46289;51.992;4.498;2023-07-30T10:39:55;101153.53;;;21.20;60.01
60437;BME280;46289;51.992;4.498;2023-07-30T10:42:00;101166.38;;;21.60;59.38
60437;BME280;46289;51.992;4.498;2023-07-30T10:44:05;101171.81;;;22.02;57.14
60437;BME280;46289;51.992;4.498;2023-07-30T10:46:12;101174.44;;;22.13;56.83
60437;BME280;46289;51.992;4.498;2023-07-30T10:48:32;101165.41;;;22.67;54.44
60437;BME280;46289;51.992;4.498;2023-07-30T10:50:37;101168.44;;;23.14;54.54
60437;BME280;46289;51.992;4.498;2023-07-30T10:52:47;101170.50;;;23.01;53.22
60437;BME280;46289;51.992;4.498;2023-07-30T10:54:59;101177.75;;;22.38;54.57
60437;BME280;46289;51.992;4.498;2023-07-30T10:57:06;101176.81;;;21.95;56.36
60437;BME280;46289;51.992;4.498;2023-07-30T10:59:11;101183.69;;;21.77;57.25
60437;BME280;46289;51.992;4.498;2023-07-30T11:01:25;101171.78;;;22.13;56.86
60437;BME280;46289;51.992;4.498;2023-07-30T11:03:31;101172.59;;;22.46;56.07
60437;BME280;46289;51.992;4.498;2023-07-30T11:05:41;101189.78;;;22.22;55.67
60437;BME280;46289;51.992;4.498;2023-07-30T11:07:54;101194.41;;;22.09;57.97
60437;BME280;46289;51.992;4.498;2023-07-30T11:10:01;101183.63;;;22.31;57.11
60437;BME280;46289;51.992;4.498;2023-07-30T11:12:08;101186.00;;;22.13;56.75
60437;BME280;46289;51.992;4.498;2023-07-30T11:14:17;101193.50;;;21.99;56.29